Saltar para o conteúdo principal

F. Castelo Rodrigo, V.Torpim

ID 1210671 · 40.7500, -6.8833 mapa

Última leitura · 2026-05-09 19:00 (Europe/Lisbon)

Temperatura
11.2 °C
Humidade
83 %
Pressão
Precipitação
1.2 mm
Radiação
257 W/m²
Velocidade do vento
5.8 km/h
Direcção do vento
W · Oeste

Histórico de 24 horas

Hora (Europe/Lisbon) Temperatura Humidade Pressão Chuva Vento Direcção
2026-05-09 19:00 11.2 °C 83 % 1.2 mm 5.8 km/h W
2026-05-09 18:00 14.4 °C 69 % 0.1 mm 23.4 km/h SW
2026-05-09 17:00 13.9 °C 82 % 0.0 mm 20.2 km/h S
2026-05-09 16:00 12.0 °C 91 % 0.0 mm 17.3 km/h S
2026-05-09 15:00 10.1 °C 99 % 3.2 mm 8.6 km/h S
2026-05-09 14:00 11.7 °C 95 % 2.8 mm 7.9 km/h SE
2026-05-09 13:00 11.9 °C 94 % 0.3 mm 19.1 km/h SE
2026-05-09 12:00 11.6 °C 88 % 0.4 mm 13.7 km/h SE
2026-05-09 11:00 11.1 °C 87 % 0.7 mm 14.0 km/h SE
2026-05-09 10:00 11.5 °C 83 % 0.2 mm 20.9 km/h SE
2026-05-09 09:00 11.5 °C 76 % 0.0 mm 9.7 km/h SE
2026-05-09 08:00 10.4 °C 80 % 0.0 mm 16.9 km/h SE
2026-05-09 07:00 9.3 °C 89 % 0.0 mm 15.1 km/h SE
2026-05-09 06:00 9.7 °C 88 % 0.0 mm 20.9 km/h SE
2026-05-09 05:00 9.5 °C 91 % 0.0 mm 17.3 km/h SE
2026-05-09 04:00 9.9 °C 91 % 0.0 mm 13.0 km/h SE
2026-05-09 03:00 10.7 °C 87 % 0.3 mm 10.4 km/h SE
2026-05-09 02:00 11.9 °C 70 % 0.0 mm 9.7 km/h SE
2026-05-09 01:00 12.0 °C 69 % 0.0 mm 20.2 km/h SE
2026-05-09 00:00 11.7 °C 71 % 0.0 mm 9.7 km/h E
2026-05-08 23:00 11.7 °C 74 % 0.0 mm 9.4 km/h E
2026-05-08 22:00 12.1 °C 73 % 0.0 mm 8.6 km/h NE
2026-05-08 21:00 12.8 °C 68 % 0.0 mm 7.6 km/h NE
2026-05-08 20:00 14.6 °C 58 % 0.0 mm 1.1 km/h S